createdAt,value
2022-12-03T00:00:45.053Z,10.25
2022-12-03T00:04:46.741Z,10.65
2022-12-03T00:08:48.412Z,11.13
2022-12-03T00:12:50.094Z,11.15
2022-12-03T00:16:51.769Z,11.80
2022-12-03T00:20:53.466Z,10.55
2022-12-03T00:24:55.407Z,13.35
2022-12-03T00:28:57.976Z,11.95
2022-12-03T00:32:59.643Z,10.95
2022-12-03T00:37:03.105Z,11.65
2022-12-03T00:41:04.952Z,11.15
2022-12-03T00:45:07.132Z,11.13
2022-12-03T00:49:09.077Z,12.63
2022-12-03T00:53:10.757Z,11.70
2022-12-03T00:57:12.480Z,10.73
2022-12-03T01:01:15.720Z,11.13
2022-12-03T01:05:18.327Z,11.27
2022-12-03T01:09:20.143Z,11.75
2022-12-03T01:13:21.825Z,11.18
2022-12-03T01:17:23.557Z,12.07
2022-12-03T01:21:25.247Z,10.45
2022-12-03T01:25:26.963Z,10.35
2022-12-03T01:29:28.636Z,11.25
2022-12-03T01:33:30.468Z,11.70
2022-12-03T01:37:32.226Z,11.85
2022-12-03T01:41:35.051Z,11.85
2022-12-03T01:45:36.787Z,10.60
2022-12-03T01:49:53.171Z,10.93
2022-12-03T01:53:54.836Z,12.95
2022-12-03T01:58:00.914Z,9.80
2022-12-03T02:02:24.245Z,10.88
2022-12-03T02:06:30.109Z,11.38
2022-12-03T02:10:36.167Z,11.38
2022-12-03T02:14:37.944Z,11.02
2022-12-03T02:18:39.676Z,10.35
2022-12-03T02:23:28.701Z,11.77
2022-12-03T02:27:30.528Z,10.77
2022-12-03T02:31:33.207Z,12.55
2022-12-03T02:35:37.324Z,13.60
2022-12-03T02:39:43.052Z,10.15
2022-12-03T02:43:44.677Z,12.88
2022-12-03T02:47:51.524Z,10.32
2022-12-03T02:51:53.700Z,10.48
2022-12-03T02:55:59.153Z,10.75
2022-12-03T03:00:00.953Z,9.40
2022-12-03T03:04:03.393Z,10.55
2022-12-03T03:08:06.584Z,10.30
2022-12-03T03:12:09.743Z,11.10
2022-12-03T03:16:11.581Z,11.32
2022-12-03T03:20:13.964Z,11.23
2022-12-03T03:24:16.488Z,9.93
2022-12-03T03:28:18.917Z,9.70
2022-12-03T03:32:21.091Z,10.63
2022-12-03T03:36:23.420Z,11.77
2022-12-03T03:40:26.205Z,10.82
2022-12-03T03:44:29.421Z,11.13
2022-12-03T03:48:31.977Z,11.20
2022-12-03T03:52:34.486Z,9.50
2022-12-03T03:56:36.363Z,9.57
2022-12-03T04:00:38.190Z,11.10
2022-12-03T04:04:39.965Z,10.50
2022-12-03T04:08:41.752Z,10.15
2022-12-03T04:12:55.546Z,11.23
2022-12-03T04:16:57.244Z,10.27
2022-12-03T04:21:18.972Z,11.20
2022-12-03T04:25:39.316Z,11.25
2022-12-03T04:29:41.126Z,8.70
2022-12-03T04:34:01.525Z,10.15
2022-12-03T04:38:03.293Z,10.60
2022-12-03T04:42:06.306Z,12.05
2022-12-03T04:46:08.071Z,10.73
2022-12-03T04:50:10.351Z,11.02
2022-12-03T04:54:12.110Z,11.82
2022-12-03T04:58:13.839Z,12.35
2022-12-03T05:02:15.629Z,12.13
2022-12-03T05:06:17.477Z,11.80
2022-12-03T05:10:19.311Z,11.95
2022-12-03T05:14:20.985Z,11.20
2022-12-03T05:18:22.694Z,12.88
2022-12-03T05:22:24.393Z,12.45
2022-12-03T05:26:26.178Z,11.55
2022-12-03T05:30:28.072Z,12.23
2022-12-03T05:34:31.685Z,13.18
2022-12-03T05:38:33.511Z,13.35
2022-12-03T05:42:53.823Z,11.88
2022-12-03T05:46:55.539Z,12.43
2022-12-03T05:50:57.197Z,12.07
2022-12-03T05:54:58.962Z,11.00
2022-12-03T05:59:00.978Z,13.30
2022-12-03T06:03:02.971Z,11.20
2022-12-03T06:07:06.632Z,12.27
2022-12-03T06:11:11.412Z,11.48
2022-12-03T06:15:14.760Z,11.75
2022-12-03T06:19:16.477Z,12.18
2022-12-03T06:23:18.130Z,11.63
2022-12-03T06:27:20.580Z,11.35
2022-12-03T06:31:23.253Z,12.90
2022-12-03T06:35:25.077Z,13.00
2022-12-03T06:39:27.262Z,12.02
2022-12-03T06:43:30.999Z,12.05
2022-12-03T06:47:32.716Z,10.73
2022-12-03T06:51:34.538Z,12.90
2022-12-03T06:55:36.430Z,11.80
2022-12-03T06:59:38.215Z,12.15
2022-12-03T07:03:39.997Z,12.82
2022-12-03T07:07:41.760Z,11.50
2022-12-03T07:11:43.571Z,12.15
2022-12-03T07:15:45.277Z,13.50
2022-12-03T07:19:47.038Z,12.05
2022-12-03T07:23:48.769Z,12.85
2022-12-03T07:27:50.680Z,13.10
2022-12-03T07:31:52.480Z,13.20
2022-12-03T07:35:54.285Z,14.35
2022-12-03T07:39:55.986Z,10.52
2022-12-03T07:43:57.671Z,14.48
2022-12-03T07:47:59.387Z,12.82
2022-12-03T07:52:01.119Z,13.20
2022-12-03T07:56:06.434Z,12.85
2022-12-03T08:00:08.516Z,13.52
2022-12-03T08:04:11.458Z,12.57
2022-12-03T08:08:13.314Z,13.52
2022-12-03T08:12:17.539Z,13.20
2022-12-03T08:16:22.088Z,16.70
2022-12-03T08:20:26.533Z,15.15
2022-12-03T08:24:29.326Z,13.35
2022-12-03T08:28:31.998Z,13.82
2022-12-03T08:32:33.687Z,14.57
2022-12-03T08:36:36.568Z,13.60
2022-12-03T08:40:45.069Z,14.48
2022-12-03T08:44:47.585Z,13.23
2022-12-03T08:48:49.777Z,13.38
2022-12-03T08:52:53.442Z,12.07
2022-12-03T08:56:55.435Z,14.00
2022-12-03T09:01:02.975Z,13.63
2022-12-03T09:05:20.151Z,13.43
2022-12-03T09:09:23.049Z,12.15
2022-12-03T09:13:24.722Z,11.88
2022-12-03T09:17:26.671Z,13.50
2022-12-03T09:21:28.379Z,14.20
2022-12-03T09:25:32.110Z,11.93
2022-12-03T09:29:33.922Z,13.77
2022-12-03T09:33:35.826Z,14.25
2022-12-03T09:37:37.689Z,12.10
2022-12-03T09:41:39.520Z,11.73
2022-12-03T09:45:41.399Z,12.75
2022-12-03T09:49:43.489Z,11.63
2022-12-03T09:53:46.343Z,12.18
2022-12-03T09:57:48.870Z,11.52
2022-12-03T10:01:51.985Z,12.15
2022-12-03T10:05:54.722Z,12.38
2022-12-03T10:09:56.584Z,11.13
2022-12-03T10:13:58.860Z,12.50
2022-12-03T10:18:05.985Z,12.00
2022-12-03T10:22:07.672Z,12.23
2022-12-03T10:26:09.531Z,12.70
2022-12-03T10:30:28.847Z,13.40
2022-12-03T10:34:36.467Z,13.65
2022-12-03T10:38:38.190Z,13.50
2022-12-03T10:42:41.049Z,13.90
2022-12-03T10:46:43.412Z,13.80
2022-12-03T10:50:56.430Z,13.73
2022-12-03T10:54:58.394Z,12.57
2022-12-03T10:59:00.074Z,14.25
2022-12-03T11:03:01.835Z,15.45
2022-12-03T11:07:12.243Z,14.35
2022-12-03T11:11:27.644Z,14.18
2022-12-03T11:15:44.297Z,14.38
2022-12-03T11:19:47.435Z,13.32
2022-12-03T11:23:52.134Z,13.70
2022-12-03T11:28:32.994Z,14.43
2022-12-03T11:32:43.669Z,13.93
2022-12-03T11:37:10.319Z,15.38
2022-12-03T11:41:19.688Z,14.10
2022-12-03T11:45:39.809Z,14.02
2022-12-03T11:49:47.109Z,14.15
2022-12-03T11:53:50.454Z,13.23
2022-12-03T11:57:59.424Z,12.90
2022-12-03T12:02:01.090Z,13.82
2022-12-03T12:06:10.787Z,13.70
2022-12-03T12:10:12.540Z,14.07
2022-12-03T12:14:14.364Z,15.00
2022-12-03T12:18:39.114Z,12.02
2022-12-03T12:22:40.823Z,11.50
2022-12-03T12:26:51.393Z,11.82
2022-12-03T12:30:53.092Z,12.45
2022-12-03T12:35:00.294Z,12.00
2022-12-03T12:39:02.110Z,9.80
2022-12-03T12:43:18.911Z,12.15
2022-12-03T12:47:26.848Z,11.98
2022-12-03T12:51:28.690Z,12.52
2022-12-03T12:55:30.465Z,13.02
2022-12-03T12:59:32.685Z,11.85
2022-12-03T13:03:38.077Z,14.07
2022-12-03T13:07:41.508Z,12.88
2022-12-03T13:11:46.851Z,13.50
2022-12-03T13:15:52.287Z,12.68
2022-12-03T13:20:03.651Z,12.25
2022-12-03T13:24:36.687Z,12.63
2022-12-03T13:28:41.375Z,12.18
2022-12-03T13:32:43.873Z,11.00
2022-12-03T13:36:50.547Z,13.02
2022-12-03T13:41:01.152Z,13.63
2022-12-03T13:45:08.982Z,12.68
2022-12-03T13:49:21.049Z,13.35
2022-12-03T13:53:28.050Z,12.50
2022-12-03T13:57:29.742Z,12.30
2022-12-03T14:01:31.497Z,13.52
2022-12-03T14:05:33.254Z,16.13
2022-12-03T14:09:35.061Z,16.33
2022-12-03T14:13:36.700Z,13.63
2022-12-03T14:17:38.443Z,14.15
2022-12-03T14:21:40.272Z,16.00
2022-12-03T14:25:44.055Z,14.80
2022-12-03T14:29:45.818Z,12.85
2022-12-03T14:33:47.571Z,15.90
2022-12-03T14:37:49.223Z,13.52
2022-12-03T14:42:09.288Z,14.45
2022-12-03T14:46:11.000Z,14.30
2022-12-03T14:50:14.562Z,14.38
2022-12-03T14:54:16.363Z,15.10
2022-12-03T14:58:18.174Z,13.05
2022-12-03T15:02:19.936Z,12.73
2022-12-03T15:06:21.680Z,14.40
2022-12-03T15:10:23.428Z,13.73
2022-12-03T15:14:25.195Z,15.38
2022-12-03T15:18:27.010Z,12.60
2022-12-03T15:22:28.648Z,14.85
2022-12-03T15:26:30.547Z,15.48
2022-12-03T15:30:35.360Z,13.00
2022-12-03T15:34:37.058Z,12.95
2022-12-03T15:38:38.725Z,13.60
2022-12-03T15:42:40.424Z,11.73
2022-12-03T15:46:42.135Z,11.90
2022-12-03T15:50:43.926Z,11.90
2022-12-03T15:54:46.218Z,10.43
2022-12-03T15:58:47.948Z,11.15
2022-12-03T16:02:53.077Z,11.88
2022-12-03T16:06:55.001Z,10.27
2022-12-03T16:10:56.681Z,10.63
2022-12-03T16:14:58.483Z,12.02
2022-12-03T16:19:00.250Z,11.82
2022-12-03T16:23:01.993Z,10.82
2022-12-03T16:27:03.880Z,11.70
2022-12-03T16:31:05.857Z,11.18
2022-12-03T16:35:08.001Z,12.43
2022-12-03T16:39:09.768Z,11.43
2022-12-03T16:43:11.521Z,13.00
2022-12-03T16:47:13.232Z,11.05
2022-12-03T16:51:15.454Z,11.93
2022-12-03T16:55:17.227Z,11.48
2022-12-03T16:59:18.934Z,11.13
2022-12-03T17:03:21.632Z,11.90
2022-12-03T17:07:23.401Z,12.88
2022-12-03T17:11:25.169Z,15.27
2022-12-03T17:15:26.858Z,13.00
2022-12-03T17:19:28.554Z,12.98
2022-12-03T17:23:30.394Z,13.40
2022-12-03T17:27:32.093Z,14.15
2022-12-03T17:31:40.031Z,12.35
2022-12-03T17:35:45.609Z,15.07
2022-12-03T17:39:47.295Z,14.98
2022-12-03T17:43:49.137Z,11.77
2022-12-03T17:47:50.836Z,14.77
2022-12-03T17:51:52.636Z,12.75
2022-12-03T17:55:54.460Z,15.32
2022-12-03T17:59:56.616Z,22.80
2022-12-03T18:03:58.668Z,12.93
2022-12-03T18:08:00.582Z,14.02
2022-12-03T18:12:02.453Z,13.02
2022-12-03T18:16:04.430Z,14.35
2022-12-03T18:20:06.988Z,13.93
2022-12-03T18:24:09.371Z,13.48
2022-12-03T18:28:11.145Z,13.95
2022-12-03T18:32:27.559Z,13.38
2022-12-03T18:36:34.881Z,13.82
2022-12-03T18:40:37.203Z,15.70
2022-12-03T18:44:38.938Z,14.80
2022-12-03T18:48:45.619Z,13.18
2022-12-03T18:52:47.304Z,16.13
2022-12-03T18:56:48.928Z,14.43
2022-12-03T19:00:50.671Z,14.52
2022-12-03T19:04:52.414Z,14.75
2022-12-03T19:08:54.569Z,15.02
2022-12-03T19:12:56.302Z,15.05
2022-12-03T19:16:58.002Z,14.30
2022-12-03T19:20:59.935Z,13.93
2022-12-03T19:25:02.350Z,14.18
2022-12-03T19:29:04.423Z,14.63
2022-12-03T19:33:06.114Z,15.18
2022-12-03T19:37:07.861Z,12.85
2022-12-03T19:41:11.661Z,16.38
2022-12-03T19:45:13.411Z,15.00
2022-12-03T19:49:16.809Z,14.35
2022-12-03T19:53:20.234Z,15.98
2022-12-03T19:57:23.609Z,15.63
2022-12-03T20:01:28.418Z,15.20
2022-12-03T20:05:33.307Z,16.33
2022-12-03T20:09:35.216Z,14.95
2022-12-03T20:13:37.024Z,14.75
2022-12-03T20:17:38.724Z,15.27
2022-12-03T20:21:41.211Z,14.52
2022-12-03T20:25:42.871Z,16.50
2022-12-03T20:29:44.696Z,15.30
2022-12-03T20:33:49.656Z,16.45
2022-12-03T20:37:51.325Z,16.20
2022-12-03T20:41:53.029Z,14.20
2022-12-03T20:45:59.547Z,13.65
2022-12-03T20:50:04.510Z,15.73
2022-12-03T20:54:06.256Z,15.18
2022-12-03T20:58:07.949Z,14.70
2022-12-03T21:02:10.587Z,14.63
2022-12-03T21:06:13.422Z,15.45
2022-12-03T21:10:33.710Z,15.85
2022-12-03T21:14:35.949Z,16.00
2022-12-03T21:18:37.781Z,14.75
2022-12-03T21:22:39.448Z,16.15
2022-12-03T21:26:41.709Z,14.52
2022-12-03T21:30:43.470Z,17.08
2022-12-03T21:34:45.231Z,15.55
2022-12-03T21:38:48.289Z,16.10
2022-12-03T21:42:50.054Z,17.08
2022-12-03T21:47:11.220Z,16.70
2022-12-03T21:51:14.769Z,15.60
2022-12-03T21:55:16.581Z,18.25
2022-12-03T21:59:18.308Z,13.88
2022-12-03T22:03:20.152Z,14.75
2022-12-03T22:07:24.666Z,14.98
2022-12-03T22:11:26.558Z,14.10
2022-12-03T22:15:28.397Z,15.10
2022-12-03T22:19:30.419Z,14.07
2022-12-03T22:23:32.657Z,15.48
2022-12-03T22:27:34.325Z,15.23
2022-12-03T22:31:36.123Z,14.60
2022-12-03T22:35:37.822Z,15.30
2022-12-03T22:39:39.673Z,13.73
2022-12-03T22:43:41.407Z,14.23
2022-12-03T22:47:43.177Z,13.82
2022-12-03T22:51:46.295Z,14.13
2022-12-03T22:55:59.790Z,15.45
2022-12-03T23:00:01.846Z,13.90
2022-12-03T23:04:05.097Z,13.50
2022-12-03T23:08:08.645Z,15.45
2022-12-03T23:12:10.511Z,14.65
2022-12-03T23:16:24.582Z,15.18
2022-12-03T23:20:27.128Z,16.05
2022-12-03T23:24:29.430Z,14.68
2022-12-03T23:28:32.626Z,13.82
2022-12-03T23:32:35.911Z,14.27
2022-12-03T23:36:37.675Z,15.40
2022-12-03T23:40:42.355Z,15.45
2022-12-03T23:44:48.227Z,16.27
2022-12-03T23:48:50.893Z,16.77
2022-12-03T23:52:53.038Z,14.90
2022-12-03T23:56:55.001Z,15.00
